PH-0036 weather

Public forecast

Using degrees Celsius for public forecast. Weather courtesy of forecast.io.

Closest aviation weather report (METAR) to SM Megamall (Building A) Heliport

Closest report is Ninoy Aquino International Airport, 5.2 nm (9.6 km) SSW. Retrieved 2020/08/13 14:00 UTC (46 minutes ago):

RPLL 131400Z AUTO 33006KT 300V010 0650 R06/2000N FEW018/// BKN022// BKN049/// 27/23 Q1011

Closest aviation forecast (TAF) to SM Megamall (Building A) Heliport

Closest forecast is Ninoy Aquino International Airport, 5.2 nm (9.6 km) SSW. Retrieved 2020/08/13 12:23 UTC (2 hours ago):

TAF RPLL 131100Z 1312/1418 11004KT 9999 FEW022 SCT100 BKN280 TX33/1406Z TN25/1321Z TEMPO 1312/1318 23007G17KT 8000 -TSRA FEW020CB SCT022 BKN100 TEMPO 1318/1324 06005KT FEW022 BKN100